Terminal Aerodrome Forecast
Issued by NWS

Home | Current Version | Previous Version | Text Only | Print | Product List | Glossary On
Versions: 1 2 3 4 5 6 7 8 9 10 11 12 13 14 15
695
FTUS46 KSEW 272101 AAA
TAFBFI
TAF AMD
KBFI 272101Z 2721/2818 23007KT P6SM BKN025 BKN050
     FM272300 25006KT P6SM SCT025 SCT050
     FM280100 30005KT P6SM FEW050
     FM280900 VRB03KT P6SM FEW025 BKN050
     FM281300 VRB03KT P6SM BKN025 BKN050=

USA.gov is the U.S. government's official web portal to all federal, state and local government web resources and services.